Time;durP1;ratioP1;P1;durP2;ratioP2;P2;SDS_P1;SDS_P2;PMS_P1;PMS_P2;Temp;Humidity;BMP_temperature;BMP_pressure;BME280_temperature;BME280_humidity;BME280_pressure;Samples;Min_cycle;Max_cycle;Signal;HPM_P1;HPM_P2
2022/06/24 00:01:57;;;;;;;2.17;1.70;;;22.20;99.90;;;;;;5070208;28;20249;-75
2022/06/24 00:04:53;;;;;;;2.95;2.03;;;22.20;99.90;;;;;;5067882;28;20307;-75
2022/06/24 00:07:49;;;;;;;2.53;1.90;;;22.20;99.90;;;;;;5069917;28;20213;-74
2022/06/24 00:10:35;;;;;;;3.10;1.90;;;22.20;99.90;;;;;;5087090;28;20194;-75
2022/06/24 00:13:19;;;;;;;1.83;1.73;;;22.10;99.90;;;;;;5067106;28;20205;-75
2022/06/24 00:16:04;;;;;;;2.22;1.92;;;22.10;99.90;;;;;;5069499;28;20228;-75
2022/06/24 00:19:08;;;;;;;2.97;1.98;;;22.00;99.90;;;;;;5069962;28;20681;-76
2022/06/24 00:22:01;;;;;;;3.08;2.10;;;22.00;99.90;;;;;;5064268;28;20268;-75
2022/06/24 00:24:45;;;;;;;1.80;1.70;;;21.90;99.90;;;;;;5067735;28;20194;-75
2022/06/24 00:27:29;;;;;;;2.95;1.67;;;21.90;99.90;;;;;;5076911;28;20209;-76
2022/06/24 00:30:15;;;;;;;2.72;2.00;;;21.80;99.90;;;;;;5065343;28;20182;-75
2022/06/24 00:33:20;;;;;;;3.08;2.20;;;21.70;99.90;;;;;;5068522;28;20228;-74
2022/06/24 00:36:06;;;;;;;2.55;1.85;;;21.70;99.90;;;;;;5069363;28;20224;-76
2022/06/24 00:38:51;;;;;;;3.30;1.95;;;21.70;99.90;;;;;;5063471;28;20233;-76
2022/06/24 00:41:36;;;;;;;3.08;1.98;;;21.60;99.90;;;;;;5070693;28;20210;-75
2022/06/24 00:44:22;;;;;;;2.40;2.03;;;21.60;99.90;;;;;;5066486;28;20214;-75
2022/06/24 00:47:08;;;;;;;3.25;2.22;;;21.60;99.90;;;;;;5070279;28;20221;-76
2022/06/24 00:49:54;;;;;;;2.60;2.25;;;21.50;99.90;;;;;;5063900;28;20221;-75
2022/06/24 00:52:39;;;;;;;3.00;1.90;;;21.50;99.90;;;;;;5064458;28;20714;-76
2022/06/24 00:55:27;;;;;;;4.38;2.28;;;21.50;99.90;;;;;;5068319;28;20222;-76
2022/06/24 00:58:16;;;;;;;4.50;2.10;;;21.40;99.90;;;;;;5069914;28;20194;-76
2022/06/24 01:01:01;;;;;;;2.28;1.90;;;21.40;99.90;;;;;;5073696;28;20213;-75
2022/06/24 01:03:45;;;;;;;3.47;2.22;;;21.40;99.90;;;;;;5069242;28;20248;-76
2022/06/24 01:06:30;;;;;;;2.50;1.83;;;21.30;99.90;;;;;;5099131;28;20253;-76
2022/06/24 01:09:19;;;;;;;4.80;2.30;;;21.30;99.90;;;;;;5064139;28;20219;-76
2022/06/24 01:12:04;;;;;;;2.10;1.90;;;21.30;99.90;;;;;;5074601;28;20247;-76
2022/06/24 01:14:48;;;;;;;3.05;2.08;;;21.30;99.90;;;;;;5072759;28;20194;-75
2022/06/24 01:17:32;;;;;;;2.15;1.90;;;21.20;99.90;;;;;;5072249;28;20190;-76
2022/06/24 01:20:18;;;;;;;2.35;1.83;;;21.20;99.90;;;;;;5067523;28;20190;-76
2022/06/24 01:23:02;;;;;;;3.35;2.00;;;21.10;99.90;;;;;;5072952;28;20213;-76
2022/06/24 01:25:47;;;;;;;3.17;1.90;;;21.10;99.90;;;;;;5074113;28;20193;-77
2022/06/24 01:28:31;;;;;;;3.10;1.88;;;21.00;99.90;;;;;;5073402;28;20197;-77
2022/06/24 01:31:16;;;;;;;4.45;2.17;;;21.00;99.90;;;;;;5065924;28;20191;-76
2022/06/24 01:34:00;;;;;;;2.25;1.85;;;21.00;99.90;;;;;;5072514;28;20190;-75
2022/06/24 01:36:45;;;;;;;2.60;2.40;;;21.00;99.90;;;;;;5070972;28;20221;-76
2022/06/24 01:39:29;;;;;;;2.38;2.00;;;21.00;99.90;;;;;;5065695;28;20204;-76
2022/06/24 01:42:14;;;;;;;3.70;2.30;;;21.00;99.90;;;;;;5073247;28;20307;-76
2022/06/24 01:44:58;;;;;;;2.38;2.15;;;20.90;99.90;;;;;;5068419;28;20557;-75
2022/06/24 01:47:42;;;;;;;2.30;2.10;;;20.80;99.90;;;;;;5068858;28;20234;-76
2022/06/24 01:50:29;;;;;;;3.28;2.75;;;20.80;99.90;;;;;;5063345;28;20187;-76
2022/06/24 01:53:13;;;;;;;2.22;2.00;;;20.80;99.90;;;;;;5069694;28;20233;-76
2022/06/24 01:55:57;;;;;;;2.80;2.42;;;20.80;99.90;;;;;;5075126;28;20198;-75
2022/06/24 01:58:41;;;;;;;2.85;2.25;;;20.80;99.90;;;;;;5073674;28;20197;-76
2022/06/24 02:01:25;;;;;;;2.17;1.98;;;20.80;99.90;;;;;;5071932;28;20194;-75
2022/06/24 02:04:09;;;;;;;5.60;2.47;;;20.80;99.90;;;;;;5077558;28;20240;-75
2022/06/24 02:06:54;;;;;;;2.42;2.22;;;20.80;99.90;;;;;;5067467;28;20352;-76
2022/06/24 02:13:26;;;;;;;2.55;2.35;;;20.70;99.90;;;;;;5081836;28;20236;-78
2022/06/24 02:15:45;;;;;;;4.65;2.38;;;20.70;99.90;;;;;;5065917;28;20194;-75
2022/06/24 02:18:30;;;;;;;2.17;1.95;;;20.60;99.90;;;;;;5074946;28;20229;-76
2022/06/24 02:21:15;;;;;;;2.63;2.35;;;20.60;99.90;;;;;;5069853;28;20264;-75
2022/06/24 02:23:59;;;;;;;2.30;2.10;;;20.60;99.90;;;;;;5077534;28;20708;-75
2022/06/24 02:26:44;;;;;;;5.10;2.00;;;20.60;99.90;;;;;;5080738;28;20198;-77
2022/06/24 02:29:28;;;;;;;3.70;2.40;;;20.60;99.90;;;;;;5080958;28;20208;-76
2022/06/24 02:32:13;;;;;;;3.03;2.20;;;20.60;99.90;;;;;;5072743;28;20275;-77
2022/06/24 02:34:57;;;;;;;2.30;2.10;;;20.50;99.90;;;;;;5069231;28;20633;-77
2022/06/24 02:37:41;;;;;;;3.17;2.40;;;20.50;99.90;;;;;;5072153;28;20716;-76
2022/06/24 02:43:29;;;;;;;4.20;2.50;;;20.40;99.90;;;;;;5068246;28;20244;-76
2022/06/24 02:46:16;;;;;;;2.85;2.50;;;20.40;99.90;;;;;;5071153;28;20231;-75
2022/06/24 02:49:00;;;;;;;2.90;2.28;;;20.30;99.90;;;;;;5069622;28;20210;-76
2022/06/24 02:51:44;;;;;;;2.78;2.40;;;20.30;99.90;;;;;;5067982;28;20210;-75
2022/06/24 02:54:28;;;;;;;3.47;2.15;;;20.30;99.90;;;;;;5068052;28;20198;-75
2022/06/24 02:57:12;;;;;;;3.60;2.45;;;20.30;99.90;;;;;;5068832;28;20198;-75
2022/06/24 02:59:56;;;;;;;2.85;2.20;;;20.30;99.90;;;;;;5067171;28;20733;-76
2022/06/24 03:02:40;;;;;;;2.45;2.25;;;20.30;99.90;;;;;;5070482;28;20218;-75
2022/06/24 03:05:25;;;;;;;4.88;2.65;;;20.30;99.90;;;;;;5071918;28;20190;-76
2022/06/24 03:08:11;;;;;;;5.18;2.88;;;20.30;99.90;;;;;;5072683;28;20239;-75
2022/06/24 03:10:57;;;;;;;2.80;2.10;;;20.30;99.90;;;;;;5068907;28;20217;-75
2022/06/24 03:13:41;;;;;;;4.53;2.30;;;20.20;99.90;;;;;;5071382;28;20217;-75
2022/06/24 03:16:26;;;;;;;3.47;2.70;;;20.20;99.90;;;;;;5066940;28;20210;-76
2022/06/24 03:19:11;;;;;;;3.67;2.45;;;20.20;99.90;;;;;;5073113;28;20201;-77
2022/06/24 03:21:56;;;;;;;2.40;2.20;;;20.20;99.90;;;;;;5068816;28;20264;-76
2022/06/24 03:24:40;;;;;;;2.42;2.22;;;20.20;99.90;;;;;;5073507;28;20189;-76
2022/06/24 03:27:25;;;;;;;2.95;2.67;;;20.20;99.90;;;;;;5069519;28;20249;-76
2022/06/24 03:30:10;;;;;;;4.22;2.40;;;20.20;99.90;;;;;;5072561;28;20246;-76
2022/06/24 03:32:55;;;;;;;4.22;2.30;;;20.20;99.90;;;;;;5080502;28;20250;-76
2022/06/24 03:35:39;;;;;;;3.70;2.58;;;20.10;99.90;;;;;;5071770;28;20251;-77
2022/06/24 03:38:23;;;;;;;6.05;2.78;;;20.10;99.90;;;;;;5066338;28;20206;-75
2022/06/24 03:41:07;;;;;;;3.90;2.53;;;20.00;99.90;;;;;;5075924;28;20186;-78
2022/06/24 03:43:52;;;;;;;5.03;2.70;;;20.00;99.90;;;;;;5072742;28;20194;-79
2022/06/24 03:46:36;;;;;;;3.15;2.50;;;20.00;99.90;;;;;;5063252;28;20254;-77
2022/06/24 03:49:20;;;;;;;6.35;3.13;;;20.00;99.90;;;;;;5075922;28;20214;-76
2022/06/24 03:52:05;;;;;;;3.53;2.45;;;20.00;99.90;;;;;;5069783;28;20768;-76
2022/06/24 03:54:50;;;;;;;4.03;2.70;;;20.00;99.90;;;;;;5072389;28;20225;-76
2022/06/24 03:57:36;;;;;;;3.00;2.60;;;20.00;99.90;;;;;;5070530;28;20662;-76
2022/06/24 04:00:20;;;;;;;3.35;2.47;;;19.90;99.90;;;;;;5070458;28;20289;-76
2022/06/24 04:03:04;;;;;;;6.75;2.53;;;19.90;99.90;;;;;;5066460;28;20218;-76
2022/06/24 04:05:49;;;;;;;3.85;2.80;;;19.90;99.90;;;;;;5068701;28;20189;-77
2022/06/24 04:08:34;;;;;;;5.63;2.70;;;20.00;99.90;;;;;;5067736;28;20266;-77
2022/06/24 04:11:18;;;;;;;6.03;2.80;;;20.00;99.90;;;;;;5069328;28;20194;-78
2022/06/24 04:14:03;;;;;;;6.07;2.85;;;20.00;99.90;;;;;;5065779;28;20189;-76
2022/06/24 04:16:47;;;;;;;3.25;2.85;;;20.00;99.90;;;;;;5071884;28;20240;-77
2022/06/24 04:19:35;;;;;;;5.00;2.67;;;20.00;99.90;;;;;;5068534;28;20185;-76
2022/06/24 04:22:20;;;;;;;3.72;2.63;;;20.00;99.90;;;;;;5067776;28;20222;-76
2022/06/24 04:25:05;;;;;;;3.72;3.03;;;20.00;99.90;;;;;;5066690;28;20217;-77
2022/06/24 04:27:50;;;;;;;2.75;2.55;;;20.10;99.90;;;;;;5063007;28;20669;-77
2022/06/24 04:30:34;;;;;;;7.85;2.92;;;20.10;99.90;;;;;;5065640;28;20503;-75
2022/06/24 04:33:18;;;;;;;3.38;2.92;;;20.10;99.90;;;;;;5066328;28;20233;-74
2022/06/24 04:36:02;;;;;;;5.03;2.65;;;20.10;99.90;;;;;;5064500;28;20189;-74
2022/06/24 04:38:48;;;;;;;6.15;3.40;;;20.10;99.90;;;;;;5064692;28;20746;-75
2022/06/24 04:41:32;;;;;;;4.57;2.90;;;20.20;99.90;;;;;;5061363;28;20209;-76
2022/06/24 04:44:17;;;;;;;3.63;2.53;;;20.20;99.90;;;;;;5066631;28;20229;-74
2022/06/24 04:47:02;;;;;;;8.50;2.67;;;20.20;99.90;;;;;;5070507;28;20243;-74
2022/06/24 04:49:46;;;;;;;8.60;3.35;;;20.30;99.90;;;;;;5077175;28;20232;-75
2022/06/24 04:52:31;;;;;;;5.72;3.30;;;20.30;99.90;;;;;;5077984;28;20581;-74
2022/06/24 04:55:15;;;;;;;4.22;2.35;;;20.40;99.90;;;;;;5070053;28;20251;-74
2022/06/24 04:57:59;;;;;;;8.15;3.00;;;20.50;99.90;;;;;;5072543;28;20240;-75
2022/06/24 05:00:43;;;;;;;4.60;3.00;;;20.60;99.90;;;;;;5071970;28;20193;-75
2022/06/24 05:03:27;;;;;;;9.40;2.92;;;20.60;99.90;;;;;;5067504;28;20339;-75
2022/06/24 05:06:11;;;;;;;3.75;2.75;;;20.70;99.90;;;;;;5072134;28;20949;-75
2022/06/24 05:08:56;;;;;;;8.48;2.55;;;20.80;99.90;;;;;;5078422;28;20194;-75
2022/06/24 05:11:40;;;;;;;8.40;2.58;;;20.90;99.90;;;;;;5069328;28;20256;-75
2022/06/24 05:14:24;;;;;;;5.07;2.65;;;21.10;99.90;;;;;;5065814;28;20214;-74
2022/06/24 05:17:09;;;;;;;6.07;2.90;;;21.20;99.90;;;;;;5067981;28;20477;-74
2022/06/24 05:19:53;;;;;;;5.57;3.15;;;21.30;99.90;;;;;;5062756;28;20288;-75
2022/06/24 05:22:38;;;;;;;5.22;3.40;;;21.40;99.90;;;;;;5072182;28;20218;-76
2022/06/24 05:25:22;;;;;;;7.60;3.67;;;21.50;99.90;;;;;;5073766;28;20267;-75
2022/06/24 05:28:06;;;;;;;4.82;3.17;;;21.60;99.90;;;;;;5058725;28;20241;-75
2022/06/24 05:30:57;;;;;;;5.97;3.53;;;21.70;99.90;;;;;;5065213;28;20191;-75
2022/06/24 05:33:42;;;;;;;3.63;3.33;;;21.80;99.90;;;;;;5070677;28;20213;-75
2022/06/24 05:36:27;;;;;;;4.35;3.47;;;21.90;99.90;;;;;;5067665;28;20700;-75
2022/06/24 05:39:11;;;;;;;9.27;4.20;;;21.90;99.90;;;;;;5084091;28;20178;-76
2022/06/24 05:41:55;;;;;;;6.82;4.10;;;22.10;99.90;;;;;;5071100;28;20264;-75
2022/06/24 05:44:40;;;;;;;6.47;4.82;;;22.20;99.90;;;;;;5065109;28;20236;-75
2022/06/24 05:47:24;;;;;;;13.27;4.50;;;22.40;99.90;;;;;;5072484;28;20241;-76
2022/06/24 05:50:08;;;;;;;7.07;4.80;;;22.50;99.90;;;;;;5069404;28;20190;-77
2022/06/24 05:56:02;;;;;;;6.05;4.70;;;22.70;99.90;;;;;;5063944;28;20259;-75
2022/06/24 05:58:46;;;;;;;11.00;5.82;;;22.80;99.90;;;;;;5064619;28;20187;-75
2022/06/24 06:01:30;;;;;;;8.93;6.35;;;23.00;99.90;;;;;;5060102;28;20245;-75
2022/06/24 06:04:14;;;;;;;9.85;6.63;;;23.10;99.90;;;;;;5063892;28;20201;-75
2022/06/24 06:06:58;;;;;;;13.40;8.23;;;23.10;99.90;;;;;;5067472;28;20229;-75
2022/06/24 06:09:42;;;;;;;15.20;7.75;;;23.20;99.90;;;;;;5057883;28;20195;-75
2022/06/24 06:12:26;;;;;;;13.90;8.23;;;23.20;99.90;;;;;;5066282;28;20225;-75
2022/06/24 06:15:10;;;;;;;12.32;7.90;;;23.20;99.90;;;;;;5070209;28;20189;-75
2022/06/24 06:17:55;;;;;;;19.98;8.02;;;23.30;99.90;;;;;;5064709;28;20193;-75
2022/06/24 06:20:39;;;;;;;11.48;7.90;;;23.40;99.90;;;;;;5070127;28;20244;-75
2022/06/24 06:23:23;;;;;;;13.27;7.88;;;23.40;99.90;;;;;;5065892;28;20229;-74
2022/06/24 06:26:09;;;;;;;8.63;7.05;;;23.50;99.90;;;;;;5061483;28;20689;-76
2022/06/24 06:28:53;;;;;;;8.05;7.28;;;23.50;99.90;;;;;;5070111;28;20700;-75
2022/06/24 06:31:38;;;;;;;10.82;6.97;;;23.50;99.90;;;;;;5063632;28;20209;-75
2022/06/24 06:34:23;;;;;;;10.68;7.53;;;23.60;99.90;;;;;;5069050;28;20225;-75
2022/06/24 06:37:07;;;;;;;11.07;8.20;;;23.70;99.90;;;;;;5066806;28;20807;-75
2022/06/24 06:39:51;;;;;;;11.77;7.10;;;23.80;99.90;;;;;;5063200;28;20197;-75
2022/06/24 06:42:35;;;;;;;13.18;8.80;;;23.80;99.90;;;;;;5068190;28;20201;-75
2022/06/24 06:45:20;;;;;;;11.40;8.68;;;23.70;99.90;;;;;;5067897;28;20223;-76
2022/06/24 06:48:04;;;;;;;16.00;8.73;;;23.70;99.90;;;;;;5068490;28;20232;-76
2022/06/24 06:50:59;;;;;;;13.30;8.77;;;23.70;99.90;;;;;;5068934;28;20944;-76
2022/06/24 06:53:43;;;;;;;13.85;9.23;;;23.70;99.90;;;;;;5065348;28;20218;-76
2022/06/24 06:56:27;;;;;;;13.30;9.35;;;23.80;99.90;;;;;;5065404;28;20209;-76
2022/06/24 06:59:11;;;;;;;12.38;9.07;;;23.80;99.90;;;;;;5064755;28;20270;-77
2022/06/24 07:01:55;;;;;;;13.95;9.88;;;23.80;99.90;;;;;;5065575;28;20301;-76
2022/06/24 07:04:39;;;;;;;11.43;9.77;;;23.80;99.90;;;;;;5066153;28;20181;-77
2022/06/24 07:07:23;;;;;;;14.27;10.23;;;23.80;99.90;;;;;;5070900;28;20606;-76
2022/06/24 07:10:08;;;;;;;10.77;9.60;;;23.80;99.90;;;;;;5075694;28;20576;-76
2022/06/24 07:12:52;;;;;;;13.20;10.05;;;23.80;99.90;;;;;;5061626;28;20254;-76
2022/06/24 07:15:36;;;;;;;12.50;10.50;;;23.80;99.90;;;;;;5067197;28;20252;-75
2022/06/24 07:18:20;;;;;;;12.65;10.48;;;23.90;99.90;;;;;;5062493;28;20201;-76
2022/06/24 07:21:04;;;;;;;12.60;10.57;;;23.90;99.90;;;;;;5069068;28;20275;-75
2022/06/24 07:23:49;;;;;;;16.20;11.07;;;23.90;99.90;;;;;;5065634;28;20236;-75
2022/06/24 07:26:33;;;;;;;15.55;10.07;;;24.00;99.90;;;;;;5068210;28;20259;-76
2022/06/24 07:29:18;;;;;;;12.00;10.13;;;24.00;99.90;;;;;;5065183;28;20235;-76
2022/06/24 07:32:03;;;;;;;15.32;10.07;;;24.10;99.90;;;;;;5061777;28;20273;-75
2022/06/24 07:34:47;;;;;;;15.32;10.45;;;24.10;99.90;;;;;;5069148;28;20664;-76
2022/06/24 07:37:31;;;;;;;14.80;10.55;;;24.20;99.90;;;;;;5063207;28;20568;-77
2022/06/24 07:40:15;;;;;;;11.80;9.88;;;24.30;99.90;;;;;;5069961;28;20261;-77
2022/06/24 07:42:59;;;;;;;13.57;10.48;;;24.30;99.90;;;;;;5071307;28;20297;-76
2022/06/24 07:45:44;;;;;;;12.07;10.88;;;24.40;99.90;;;;;;5066797;28;20197;-76
2022/06/24 07:48:28;;;;;;;13.27;10.63;;;24.40;99.90;;;;;;5080886;28;20182;-76
2022/06/24 07:51:14;;;;;;;17.92;10.90;;;24.50;99.90;;;;;;5069752;28;20236;-77
2022/06/24 07:53:58;;;;;;;11.50;9.98;;;24.50;99.90;;;;;;5064925;28;20225;-76
2022/06/24 07:56:57;;;;;;;13.65;10.38;;;24.50;99.90;;;;;;5060657;28;20221;-76
2022/06/24 07:59:45;;;;;;;14.30;9.18;;;24.40;99.90;;;;;;5059340;28;20217;-77
2022/06/24 08:02:29;;;;;;;12.70;8.98;;;24.40;99.90;;;;;;5062592;28;20237;-76
2022/06/24 08:05:13;;;;;;;15.45;9.07;;;24.40;99.90;;;;;;5061789;28;20191;-76
2022/06/24 08:07:57;;;;;;;10.10;8.35;;;24.40;99.90;;;;;;5068053;28;20243;-76
2022/06/24 08:10:42;;;;;;;10.27;8.30;;;24.40;99.90;;;;;;5066194;28;20320;-76
2022/06/24 08:13:26;;;;;;;11.43;8.43;;;24.50;99.90;;;;;;5064593;28;20325;-76
2022/06/24 08:16:10;;;;;;;12.60;7.93;;;24.50;99.90;;;;;;5064328;28;20194;-77
2022/06/24 08:18:54;;;;;;;9.38;7.60;;;24.50;99.90;;;;;;5079449;28;20708;-76
2022/06/24 08:21:39;;;;;;;11.55;8.55;;;24.50;99.90;;;;;;5071278;28;20213;-76
2022/06/24 08:24:23;;;;;;;13.90;8.70;;;24.60;99.90;;;;;;5062377;28;20224;-77
2022/06/24 08:27:07;;;;;;;9.80;7.72;;;24.60;99.90;;;;;;5064712;28;20197;-77
2022/06/24 08:29:51;;;;;;;10.43;8.00;;;24.50;99.90;;;;;;5066992;28;20691;-77
2022/06/24 08:32:36;;;;;;;14.30;8.00;;;24.50;99.90;;;;;;5062198;28;20241;-76
2022/06/24 08:35:20;;;;;;;11.00;7.10;;;24.50;99.90;;;;;;5056573;28;20243;-79
2022/06/24 08:38:07;;;;;;;9.80;7.00;;;24.40;99.90;;;;;;5065751;28;20586;-78
2022/06/24 08:40:54;;;;;;;9.77;7.57;;;24.30;99.90;;;;;;5076308;28;20189;-78
2022/06/24 08:43:39;;;;;;;9.25;7.63;;;24.30;99.90;;;;;;5063961;28;20190;-78
2022/06/24 08:46:25;;;;;;;12.20;7.68;;;24.30;99.90;;;;;;5070720;28;20649;-79
2022/06/24 08:49:09;;;;;;;8.07;6.90;;;24.20;99.90;;;;;;5067379;28;20604;-79
2022/06/24 08:51:57;;;;;;;10.90;7.57;;;24.20;99.90;;;;;;5063069;28;20252;-76
2022/06/24 08:54:43;;;;;;;11.88;8.13;;;24.10;99.90;;;;;;5066457;28;20234;-76
2022/06/24 08:57:27;;;;;;;7.68;6.88;;;24.00;99.90;;;;;;5079287;28;20209;-76
2022/06/24 09:00:13;;;;;;;7.78;6.80;;;24.00;99.90;;;;;;5061816;28;20228;-76
2022/06/24 09:02:56;;;;;;;8.15;7.43;;;23.90;99.90;;;;;;5062574;28;20217;-76
2022/06/24 09:05:42;;;;;;;9.88;7.22;;;23.90;99.90;;;;;;5063151;28;20250;-76
2022/06/24 09:08:32;;;;;;;7.18;6.47;;;23.80;99.90;;;;;;5065167;28;20236;-77
2022/06/24 09:11:18;;;;;;;11.80;7.10;;;23.70;99.90;;;;;;5068207;28;20646;-77
2022/06/24 09:14:05;;;;;;;7.70;6.90;;;23.70;99.90;;;;;;5065144;28;20205;-78
2022/06/24 09:16:49;;;;;;;9.73;5.53;;;23.60;99.90;;;;;;5059072;28;20211;-76
2022/06/24 09:19:34;;;;;;;10.88;6.00;;;23.60;99.90;;;;;;5063839;28;20256;-75
2022/06/24 09:22:22;;;;;;;7.35;4.25;;;23.60;99.90;;;;;;5060705;28;20261;-75
2022/06/24 09:25:07;;;;;;;6.97;4.00;;;23.60;99.90;;;;;;5067184;28;20270;-75
2022/06/24 09:27:51;;;;;;;4.88;4.45;;;23.70;99.90;;;;;;5064105;28;20206;-75
2022/06/24 09:30:38;;;;;;;6.45;4.40;;;23.70;99.90;;;;;;5067432;28;20197;-76
2022/06/24 09:33:22;;;;;;;5.90;4.50;;;23.70;99.90;;;;;;5060524;28;20268;-75
2022/06/24 09:36:09;;;;;;;9.10;5.70;;;23.80;99.90;;;;;;5066899;28;20197;-76
2022/06/24 09:39:05;;;;;;;6.93;5.60;;;23.70;99.90;;;;;;5066475;28;20194;-75
2022/06/24 09:41:53;;;;;;;6.82;5.10;;;23.70;99.90;;;;;;5066865;28;20229;-77
2022/06/24 09:44:44;;;;;;;5.85;5.00;;;23.80;99.90;;;;;;5068097;28;20225;-76
2022/06/24 09:47:28;;;;;;;6.78;4.85;;;23.70;99.90;;;;;;5066096;28;20221;-76
2022/06/24 09:50:12;;;;;;;6.88;4.70;;;23.70;99.90;;;;;;5069213;28;20221;-76
2022/06/24 09:52:57;;;;;;;5.90;4.18;;;23.80;99.90;;;;;;5071049;28;20236;-76
2022/06/24 09:55:41;;;;;;;5.93;4.00;;;23.80;99.90;;;;;;5073102;28;20211;-75
2022/06/24 09:58:26;;;;;;;3.95;3.60;;;23.80;99.90;;;;;;5065905;28;20232;-75
2022/06/24 10:01:10;;;;;;;5.38;3.75;;;23.80;99.90;;;;;;5061372;28;20190;-75
2022/06/24 10:03:55;;;;;;;10.25;1.80;;;23.80;99.90;;;;;;5066341;28;20225;-76
2022/06/24 10:06:43;;;;;;;3.10;1.23;;;23.80;99.90;;;;;;5070712;28;20256;-76
2022/06/24 10:09:30;;;;;;;2.72;1.40;;;23.70;99.90;;;;;;5072690;28;20191;-77
2022/06/24 10:12:16;;;;;;;5.28;1.40;;;23.70;99.90;;;;;;5061635;28;20214;-76
2022/06/24 10:15:01;;;;;;;3.08;1.88;;;23.70;99.90;;;;;;5065447;28;20259;-76
2022/06/24 10:17:47;;;;;;;4.15;1.80;;;23.70;99.90;;;;;;5068589;28;20210;-76
2022/06/24 10:20:31;;;;;;;2.80;1.40;;;23.70;99.90;;;;;;5061360;28;20190;-75
2022/06/24 10:23:36;;;;;;;2.83;1.55;;;23.70;99.90;;;;;;5069781;28;20209;-75
2022/06/24 10:26:29;;;;;;;2.40;1.33;;;23.70;99.90;;;;;;5062260;28;20182;-76
2022/06/24 10:29:19;;;;;;;4.40;1.83;;;23.70;99.90;;;;;;5060856;28;20179;-76
2022/06/24 10:32:05;;;;;;;4.35;2.08;;;23.70;99.90;;;;;;5061007;28;20221;-77
2022/06/24 10:34:50;;;;;;;5.95;3.35;;;23.70;99.90;;;;;;5069091;28;20186;-77
2022/06/24 10:37:36;;;;;;;3.45;2.17;;;23.60;99.90;;;;;;5069756;28;20214;-77
2022/06/24 10:40:24;;;;;;;4.70;1.67;;;23.50;99.90;;;;;;5066015;28;20249;-76
2022/06/24 10:43:08;;;;;;;3.78;1.60;;;23.50;99.90;;;;;;5074329;28;20293;-77
2022/06/24 10:46:18;;;;;;;5.78;1.98;;;23.40;99.90;;;;;;5072394;28;20195;-77
2022/06/24 10:49:02;;;;;;;3.33;1.50;;;23.50;99.90;;;;;;5066548;28;20197;-77
2022/06/24 10:51:46;;;;;;;2.03;1.38;;;23.50;99.90;;;;;;5067331;28;20209;-78
2022/06/24 10:54:30;;;;;;;4.25;1.65;;;23.50;99.90;;;;;;5066107;28;20669;-76
2022/06/24 10:57:14;;;;;;;2.58;1.30;;;23.50;99.90;;;;;;5066626;28;20251;-77
2022/06/24 10:59:59;;;;;;;3.28;1.30;;;23.50;99.90;;;;;;5064739;28;20182;-77
2022/06/24 11:02:45;;;;;;;1.80;1.42;;;23.50;99.90;;;;;;5067259;28;20302;-77
2022/06/24 11:05:32;;;;;;;2.90;1.08;;;23.50;99.90;;;;;;5071001;28;20257;-77
2022/06/24 11:08:18;;;;;;;5.43;1.50;;;23.50;99.90;;;;;;5063036;28;20193;-76
2022/06/24 11:11:04;;;;;;;2.78;1.40;;;23.50;99.90;;;;;;5084022;28;20553;-77
2022/06/24 11:13:48;;;;;;;2.50;1.30;;;23.50;99.90;;;;;;5061276;28;20210;-77
2022/06/24 11:16:32;;;;;;;1.88;1.02;;;23.60;99.90;;;;;;5072121;28;20197;-77
2022/06/24 11:19:18;;;;;;;2.25;1.30;;;23.60;99.90;;;;;;5066811;28;20275;-78
2022/06/24 11:22:02;;;;;;;5.63;2.13;;;23.60;99.90;;;;;;5068996;28;20755;-78
2022/06/24 11:24:48;;;;;;;4.53;1.30;;;23.70;99.90;;;;;;5069634;28;20193;-77
2022/06/24 11:27:36;;;;;;;11.05;1.73;;;23.80;99.90;;;;;;5068976;28;20273;-77
2022/06/24 11:30:20;;;;;;;4.60;1.10;;;23.80;99.90;;;;;;5066265;28;20293;-77
2022/06/24 11:33:05;;;;;;;8.60;1.23;;;24.00;99.90;;;;;;5067721;28;20289;-78
2022/06/24 11:35:50;;;;;;;2.25;0.82;;;24.10;99.90;;;;;;5068178;28;20197;-77
2022/06/24 11:38:48;;;;;;;3.00;1.40;;;24.30;99.90;;;;;;5064847;28;20221;-77
2022/06/24 11:41:37;;;;;;;4.50;1.00;;;24.50;99.90;;;;;;5070219;28;20214;-77
2022/06/24 11:44:36;;;;;;;0.80;0.80;;;24.70;99.90;;;;;;5063674;28;20199;-77
2022/06/24 11:47:33;;;;;;;3.53;1.33;;;24.90;99.90;;;;;;5063566;28;20198;-78
2022/06/24 11:50:19;;;;;;;2.78;1.17;;;25.00;99.90;;;;;;5076116;28;20224;-77
2022/06/24 11:53:05;;;;;;;1.70;1.20;;;25.10;99.90;;;;;;5066691;28;20301;-77
2022/06/24 11:55:50;;;;;;;4.05;1.25;;;25.20;99.90;;;;;;5066896;28;20723;-78
2022/06/24 11:58:37;;;;;;;2.42;0.95;;;25.30;99.90;;;;;;5062204;28;20198;-77
2022/06/24 12:01:23;;;;;;;4.18;1.20;;;25.40;99.90;;;;;;5064583;28;20202;-77
2022/06/24 12:04:09;;;;;;;2.72;1.13;;;25.40;99.90;;;;;;5066276;28;20270;-77
2022/06/24 12:06:54;;;;;;;4.60;1.02;;;25.40;99.90;;;;;;5064016;28;20215;-78
2022/06/24 12:09:39;;;;;;;2.40;1.20;;;25.50;99.90;;;;;;5060281;28;20284;-77
2022/06/24 12:12:24;;;;;;;5.32;1.58;;;25.50;99.90;;;;;;5064835;28;20214;-77
2022/06/24 12:15:08;;;;;;;3.38;1.60;;;25.60;99.90;;;;;;5060384;28;20262;-77
2022/06/24 12:17:53;;;;;;;2.50;1.30;;;25.60;99.90;;;;;;5063448;28;20259;-77
2022/06/24 12:20:37;;;;;;;5.50;1.30;;;25.60;99.90;;;;;;5089763;28;20202;-76
2022/06/24 12:23:22;;;;;;;3.15;1.77;;;25.60;99.90;;;;;;5062598;28;20201;-77
2022/06/24 12:26:12;;;;;;;3.90;1.58;;;25.60;99.90;;;;;;5073123;28;20223;-77
2022/06/24 12:29:04;;;;;;;4.28;1.70;;;25.60;99.90;;;;;;5064382;28;20244;-78
2022/06/24 12:31:50;;;;;;;2.95;1.45;;;25.70;99.90;;;;;;5068174;28;20696;-79
2022/06/24 12:34:38;;;;;;;3.92;1.80;;;25.80;99.90;;;;;;5085855;28;20202;-78
2022/06/24 12:37:21;;;;;;;3.47;2.20;;;25.90;99.90;;;;;;5066709;28;20207;-78
2022/06/24 12:40:06;;;;;;;3.15;2.40;;;26.00;99.90;;;;;;5065401;28;20681;-77
2022/06/24 12:43:07;;;;;;;3.28;2.33;;;26.10;99.90;;;;;;5062373;28;20620;-78
2022/06/24 12:45:52;;;;;;;5.53;2.72;;;26.10;99.90;;;;;;5067066;28;20225;-79
2022/06/24 12:51:43;;;;;;;3.72;2.28;;;26.10;99.90;;;;;;5062945;28;20260;-77
2022/06/24 12:54:27;;;;;;;4.45;2.60;;;26.00;99.90;;;;;;5063039;28;20233;-77
2022/06/24 12:57:11;;;;;;;3.33;3.03;;;26.00;99.90;;;;;;5064932;28;20257;-78
2022/06/24 12:59:55;;;;;;;3.30;2.50;;;25.80;99.90;;;;;;5069155;28;20190;-77
2022/06/24 13:02:47;;;;;;;2.70;1.90;;;25.60;99.90;;;;;;5061621;28;20260;-77
2022/06/24 13:05:32;;;;;;;1.95;1.65;;;25.30;99.90;;;;;;5067348;28;20191;-78
2022/06/24 13:08:17;;;;;;;2.05;1.50;;;25.00;99.90;;;;;;5071661;28;20205;-76
2022/06/24 13:11:01;;;;;;;1.50;1.40;;;24.70;99.90;;;;;;5070434;28;20271;-77
2022/06/24 13:13:45;;;;;;;2.25;1.92;;;24.50;99.90;;;;;;5068638;28;20611;-77
2022/06/24 13:16:29;;;;;;;2.00;1.90;;;24.40;99.90;;;;;;5073366;28;20232;-77
2022/06/24 13:19:13;;;;;;;2.80;1.95;;;24.20;99.90;;;;;;5070474;28;20197;-77
2022/06/24 13:22:00;;;;;;;3.10;2.03;;;24.10;99.90;;;;;;5070418;28;20213;-77
2022/06/24 13:24:44;;;;;;;2.30;2.10;;;24.00;99.90;;;;;;5070045;28;20186;-77
2022/06/24 13:27:28;;;;;;;4.70;1.77;;;23.90;99.90;;;;;;5068571;28;20216;-77
2022/06/24 13:30:13;;;;;;;3.22;1.55;;;23.90;99.90;;;;;;5065662;28;20249;-77
2022/06/24 13:32:57;;;;;;;1.85;1.40;;;23.80;99.90;;;;;;5068680;28;20260;-77
2022/06/24 13:35:41;;;;;;;1.55;1.45;;;23.80;99.90;;;;;;5069062;28;20568;-78
2022/06/24 13:38:25;;;;;;;2.15;1.95;;;23.70;99.90;;;;;;5058574;28;20226;-77
2022/06/24 13:41:09;;;;;;;1.67;1.58;;;23.70;99.90;;;;;;5082580;28;20189;-77
2022/06/24 13:43:53;;;;;;;6.07;1.85;;;23.70;99.90;;;;;;5072874;28;20189;-78
2022/06/24 13:46:37;;;;;;;2.50;2.03;;;23.70;99.90;;;;;;5055813;28;20195;-78
2022/06/24 13:49:21;;;;;;;1.73;1.63;;;23.60;99.90;;;;;;5065998;28;20685;-77
2022/06/24 13:52:06;;;;;;;1.48;1.38;;;23.70;99.90;;;;;;5064822;28;20268;-77
2022/06/24 13:54:49;;;;;;;1.25;1.10;;;23.70;99.90;;;;;;5068969;28;20198;-77
2022/06/24 13:57:34;;;;;;;1.30;1.20;;;23.70;99.90;;;;;;5068780;28;20210;-78
2022/06/24 14:00:18;;;;;;;1.20;1.10;;;23.70;99.90;;;;;;5066087;28;20174;-77
2022/06/24 14:03:03;;;;;;;1.33;1.20;;;23.60;99.90;;;;;;5071432;28;20213;-77
2022/06/24 14:05:46;;;;;;;1.63;1.20;;;23.50;99.90;;;;;;5071946;28;20225;-78
2022/06/24 14:08:31;;;;;;;2.25;1.05;;;23.50;99.90;;;;;;5060631;28;20565;-77
2022/06/24 14:11:17;;;;;;;0.93;0.93;;;23.50;99.90;;;;;;5067110;28;20259;-77
2022/06/24 14:14:01;;;;;;;1.02;1.02;;;23.40;99.90;;;;;;5063336;28;20230;-77
2022/06/24 14:16:45;;;;;;;1.27;1.17;;;23.30;99.90;;;;;;5072124;28;20273;-77
2022/06/24 14:19:29;;;;;;;1.20;1.10;;;23.30;99.90;;;;;;5067668;28;20201;-77
2022/06/24 14:22:13;;;;;;;1.10;1.00;;;23.40;99.90;;;;;;5066110;28;20210;-77
2022/06/24 14:24:57;;;;;;;0.70;0.70;;;23.40;99.90;;;;;;5071369;28;20245;-77
2022/06/24 14:27:41;;;;;;;0.80;0.80;;;23.40;99.90;;;;;;5072125;28;20658;-77
2022/06/24 14:30:25;;;;;;;0.88;0.80;;;23.30;99.90;;;;;;5053315;28;20218;-77
2022/06/24 14:33:10;;;;;;;1.20;1.10;;;23.20;99.90;;;;;;5071437;28;20763;-77